TFM - Tactical Decision Aid (Experimental) INFO Settings

ID: Runway Winds: METAR Board: Map:

Katl - Atlanta-Hartsfield Jackson Intl

Updated at: 2114 UTC 23 Oct 2014
Latest TAF at: 1942 UTC 23 Oct 2014

TAF Board

Time2052Z23/22Z23/23Z24/00Z24/01Z24/02Z24/03Z24/04Z24/05Z24/06Z24/07Z24/08Z24/09Z24/10Z
TypeOBSPRVLPRVLPRVLPRVLPRVLPRVLPRVLPRVLPRVLPRVLPRVLPRVLPRVL
VIS10>6>6>6>6>6>6>6>6>6>6>6>6>6
CIG250------200200200200200200200200200200
CoverBKNFEWFEWFEWBKNBKNBKNBKNBKNBKNBKNBKNBKNBKN
FltCat--VFRVFRVFRVFRVFRVFRVFRVFRVFRVFRVFRVFRVFR
WX----------------------------
WDir310300300300320320320320320320320320320320
WSpd77773333333333
WGst----------------------------
TAF
KATL 231942Z 2320/2424 30007KT P6SM FEW250
  FM240100 32003KT P6SM BKN200
  FM241600 32005KT P6SM SKC


METAR
KATL 232052Z 31007KT 10SM FEW200 BKN250 21/03 A3003 RMK AO2 SLP165 T02110033 56018
KATL 231952Z 34008KT 10SM FEW200 22/03 A3003 RMK AO2 SLP167 T02170028

TAF/METAR Board Legend

Hazard VFR MVFR IFR LIFR
Visibility (sm) >5 3≤X≤5 1≤X<3 <1
Ceiling (100 ft) >30 10≤X≤30 5≤X<10 <5
Wind Speed (kt) <10 10≤X<20 20≤X<30 ≥30
Wind Gust (kt) <15 15≤X<25 25≤X<35 ≥35
Weather No Wx Reported VCTS,-TS,-FZRA TS,FZRA +TS,+FZRA




Page loaded:  21:14 UTC  |   02:14 PM Pacific  |   03:14 PM Mountain  |   04:14 PM Central  |   05:14 PM Eastern

 

ADVISORIES

FORECASTS

FORECASTS

OBSERVATIONS

USER TOOLS

ABOUT US